createdAt,value
2022-08-24T00:05:12.727Z,95.58
2022-08-24T00:15:17.174Z,96.13
2022-08-24T00:25:20.685Z,96.37
2022-08-24T00:35:24.508Z,97.26
2022-08-24T00:45:27.038Z,96.47
2022-08-24T00:55:34.391Z,97.63
2022-08-24T01:05:38.533Z,98.07
2022-08-24T01:15:45.957Z,99.09
2022-08-24T01:25:48.457Z,98.71
2022-08-24T01:35:51.125Z,100.00
2022-08-24T01:45:54.445Z,99.76
2022-08-24T01:55:56.918Z,99.72
2022-08-24T02:05:59.824Z,100.00
2022-08-24T02:16:02.562Z,100.00
2022-08-24T02:26:07.319Z,100.00
2022-08-24T02:36:25.707Z,100.00
2022-08-24T02:46:31.181Z,100.00
2022-08-24T02:56:33.765Z,100.00
2022-08-24T03:06:36.411Z,100.00
2022-08-24T03:16:38.983Z,100.00
2022-08-24T03:26:44.097Z,100.00
2022-08-24T03:36:46.870Z,100.00
2022-08-24T03:46:49.501Z,100.00
2022-08-24T03:56:51.900Z,100.00
2022-08-24T04:06:54.218Z,100.00
2022-08-24T04:16:57.910Z,100.00
2022-08-24T04:27:00.545Z,100.00
2022-08-24T04:37:03.037Z,100.00
2022-08-24T04:47:06.053Z,100.00
2022-08-24T04:57:08.659Z,100.00
2022-08-24T05:07:11.134Z,100.00
2022-08-24T05:17:14.080Z,100.00
2022-08-24T05:27:18.993Z,100.00
2022-08-24T05:37:23.110Z,100.00
2022-08-24T05:47:36.908Z,100.00
2022-08-24T05:57:42.798Z,100.00
2022-08-24T06:07:47.313Z,100.00
2022-08-24T06:17:51.680Z,99.53
2022-08-24T06:27:55.696Z,97.96
2022-08-24T06:37:59.743Z,96.47
2022-08-24T06:48:03.128Z,93.81
2022-08-24T06:58:06.532Z,91.40
2022-08-24T07:08:11.388Z,89.39
2022-08-24T07:18:16.639Z,86.18
2022-08-24T07:28:27.697Z,84.09
2022-08-24T07:38:38.645Z,79.26
2022-08-24T07:48:41.891Z,75.18
2022-08-24T07:58:48.370Z,67.35
2022-08-24T08:08:55.327Z,66.71
2022-08-24T08:19:21.099Z,63.32
2022-08-24T08:29:27.792Z,61.51
2022-08-24T08:39:32.544Z,60.73
2022-08-24T08:50:08.780Z,59.81
2022-08-24T09:00:53.347Z,55.16
2022-08-24T09:11:33.846Z,51.81
2022-08-24T09:22:11.073Z,52.55
2022-08-24T09:32:42.314Z,49.37
2022-08-24T09:43:40.126Z,50.07
2022-08-24T09:54:25.740Z,47.02
2022-08-24T10:04:55.415Z,48.74
2022-08-24T10:15:16.248Z,44.06
2022-08-24T10:25:47.110Z,46.73
2022-08-24T10:36:22.205Z,43.27
2022-08-24T10:47:13.710Z,39.01
2022-08-24T10:57:19.915Z,37.54
2022-08-24T11:07:41.239Z,37.80
2022-08-24T11:18:12.672Z,35.46
2022-08-24T11:29:04.885Z,35.03
2022-08-24T11:39:17.937Z,37.71
2022-08-24T11:49:43.393Z,36.68
2022-08-24T12:12:13.259Z,37.62
2022-08-24T12:22:40.049Z,36.77
2022-08-24T12:32:59.236Z,32.53
2022-08-24T12:43:16.111Z,33.70
2022-08-24T12:54:27.292Z,34.87
2022-08-24T13:15:51.651Z,35.12
2022-08-24T13:26:19.636Z,35.26
2022-08-24T13:36:47.423Z,28.39
2022-08-24T13:47:07.264Z,31.31
2022-08-24T13:57:35.733Z,33.69
2022-08-24T14:07:56.511Z,31.95
2022-08-24T14:18:29.158Z,25.54
2022-08-24T14:28:48.300Z,29.03
2022-08-24T14:39:50.515Z,26.99
2022-08-24T14:50:12.831Z,26.62
2022-08-24T15:00:25.211Z,29.86
2022-08-24T15:10:56.709Z,30.94
2022-08-24T15:21:21.123Z,30.83
2022-08-24T15:31:29.038Z,31.23
2022-08-24T15:41:38.656Z,30.14
2022-08-24T15:51:53.867Z,29.56
2022-08-24T16:02:26.960Z,31.33
2022-08-24T16:12:32.579Z,30.20
2022-08-24T16:22:40.839Z,34.95
2022-08-24T16:32:55.614Z,39.06
2022-08-24T16:42:58.797Z,43.08
2022-08-24T16:53:01.839Z,48.35
2022-08-24T17:03:04.764Z,43.60
2022-08-24T17:13:08.512Z,47.43
2022-08-24T17:23:11.432Z,52.12
2022-08-24T17:33:14.402Z,52.87
2022-08-24T17:43:17.085Z,50.56
2022-08-24T17:53:19.857Z,52.15
2022-08-24T18:03:23.557Z,57.65
2022-08-24T18:13:27.869Z,61.25
2022-08-24T18:23:31.759Z,61.81
2022-08-24T18:33:35.264Z,64.46
2022-08-24T18:43:39.307Z,65.26
2022-08-24T18:53:42.589Z,63.91
2022-08-24T19:03:45.345Z,63.43
2022-08-24T19:13:48.308Z,65.54
2022-08-24T19:23:51.612Z,68.40
2022-08-24T19:33:55.614Z,70.48
2022-08-24T19:44:27.571Z,71.56
2022-08-24T19:54:35.685Z,71.54
2022-08-24T20:04:39.649Z,73.26
2022-08-24T20:14:42.907Z,75.54
2022-08-24T20:24:46.162Z,77.56
2022-08-24T20:34:49.374Z,78.98
2022-08-24T20:44:53.045Z,79.27
2022-08-24T20:54:57.277Z,80.62
2022-08-24T21:05:00.481Z,81.75
2022-08-24T21:15:04.478Z,82.85
2022-08-24T21:25:10.868Z,83.65
2022-08-24T21:35:15.314Z,84.09
2022-08-24T21:45:18.976Z,84.41
2022-08-24T21:55:23.211Z,85.56
2022-08-24T22:05:27.533Z,86.17
2022-08-24T22:15:34.344Z,87.48
2022-08-24T22:25:37.311Z,88.14
2022-08-24T22:35:45.128Z,89.42
2022-08-24T22:45:52.801Z,90.30
2022-08-24T22:55:55.363Z,90.73
2022-08-24T23:05:57.827Z,90.83
2022-08-24T23:16:01.767Z,91.21
2022-08-24T23:26:05.617Z,93.66
2022-08-24T23:36:11.281Z,93.46
2022-08-24T23:46:14.061Z,94.78
2022-08-24T23:56:25.729Z,94.95
